createdAt,value
2023-05-25T00:01:02.556Z,57.59
2023-05-25T00:03:34.498Z,57.69
2023-05-25T00:06:06.197Z,57.75
2023-05-25T00:08:35.759Z,57.73
2023-05-25T00:11:04.914Z,57.94
2023-05-25T00:13:34.875Z,57.94
2023-05-25T00:16:06.485Z,57.83
2023-05-25T00:18:38.418Z,57.90
2023-05-25T00:21:08.097Z,57.74
2023-05-25T00:23:38.017Z,57.82
2023-05-25T00:26:07.253Z,58.34
2023-05-25T00:28:36.251Z,58.32
2023-05-25T00:31:07.878Z,58.22
2023-05-25T00:33:38.476Z,58.50
2023-05-25T00:36:09.829Z,58.58
2023-05-25T00:38:40.479Z,58.46
2023-05-25T00:41:10.694Z,58.43
2023-05-25T00:43:41.326Z,58.58
2023-05-25T00:46:11.538Z,58.50
2023-05-25T00:48:43.191Z,58.52
2023-05-25T00:51:13.398Z,58.74
2023-05-25T00:53:45.830Z,58.67
2023-05-25T00:56:16.461Z,58.82
2023-05-25T00:58:47.280Z,58.85
2023-05-25T01:01:19.040Z,58.95
2023-05-25T01:03:54.333Z,58.92
2023-05-25T01:06:26.121Z,59.00
2023-05-25T01:09:00.708Z,58.94
2023-05-25T01:11:32.937Z,58.88
2023-05-25T01:14:04.650Z,59.07
2023-05-25T01:16:37.342Z,59.20
2023-05-25T01:19:06.265Z,59.30
2023-05-25T01:21:46.364Z,59.29
2023-05-25T01:24:22.782Z,59.26
2023-05-25T01:27:13.385Z,59.22
2023-05-25T01:29:44.604Z,59.44
2023-05-25T01:32:15.384Z,59.47
2023-05-25T01:34:46.611Z,59.51
2023-05-25T01:37:19.941Z,59.66
2023-05-25T01:39:48.824Z,59.86
2023-05-25T01:42:17.664Z,59.91
2023-05-25T01:44:48.228Z,60.13
2023-05-25T01:47:26.650Z,60.07
2023-05-25T01:50:00.340Z,60.19
2023-05-25T01:52:33.071Z,60.29
2023-05-25T01:55:04.283Z,60.35
2023-05-25T01:57:38.748Z,60.40
2023-05-25T02:00:10.380Z,60.53
2023-05-25T02:02:47.451Z,60.54
2023-05-25T02:05:17.802Z,60.53
2023-05-25T02:07:49.302Z,60.74
2023-05-25T02:10:19.460Z,60.59
2023-05-25T02:12:50.189Z,60.93
2023-05-25T02:15:21.935Z,60.89
2023-05-25T02:17:52.805Z,60.90
2023-05-25T02:20:22.991Z,60.94
2023-05-25T02:22:54.151Z,61.07
2023-05-25T02:25:24.845Z,61.04
2023-05-25T02:27:53.681Z,61.16
2023-05-25T02:30:22.522Z,61.21
2023-05-25T02:32:52.115Z,61.28
2023-05-25T02:35:23.660Z,61.24
2023-05-25T02:37:57.317Z,61.31
2023-05-25T02:40:28.876Z,61.26
2023-05-25T02:43:00.553Z,61.49
2023-05-25T02:45:30.380Z,61.41
2023-05-25T02:48:02.093Z,61.49
2023-05-25T02:50:34.660Z,61.52
2023-05-25T02:53:06.285Z,61.65
2023-05-25T02:55:35.340Z,61.62
2023-05-25T02:58:05.434Z,61.80
2023-05-25T03:00:51.099Z,61.98
2023-05-25T03:03:22.916Z,61.88
2023-05-25T03:05:52.696Z,61.96
2023-05-25T03:08:24.393Z,62.29
2023-05-25T03:10:54.197Z,62.02
2023-05-25T03:13:23.276Z,62.03
2023-05-25T03:15:53.904Z,62.01
2023-05-25T03:18:24.073Z,61.94
2023-05-25T03:20:55.172Z,62.00
2023-05-25T03:23:25.598Z,61.89
2023-05-25T03:25:56.955Z,62.21
2023-05-25T03:28:27.043Z,62.09
2023-05-25T03:30:58.258Z,62.14
2023-05-25T03:33:28.689Z,62.36
2023-05-25T03:36:00.045Z,62.47
2023-05-25T03:38:29.503Z,62.26
2023-05-25T03:40:58.434Z,62.34
2023-05-25T03:43:28.308Z,62.23
2023-05-25T03:45:58.386Z,62.18
2023-05-25T03:48:27.734Z,62.21
2023-05-25T03:50:57.096Z,62.24
2023-05-25T03:53:26.808Z,62.28
2023-05-25T03:55:56.413Z,62.49
2023-05-25T03:58:29.381Z,62.51
2023-05-25T04:01:01.693Z,62.27
2023-05-25T04:03:33.389Z,62.34
2023-05-25T04:06:02.991Z,62.34
2023-05-25T04:08:34.401Z,62.24
2023-05-25T04:11:03.467Z,62.50
2023-05-25T04:13:36.616Z,62.42
2023-05-25T04:16:09.554Z,62.42
2023-05-25T04:18:42.609Z,62.43
2023-05-25T04:21:13.160Z,62.30
2023-05-25T04:23:45.536Z,62.14
2023-05-25T04:26:16.841Z,62.31
2023-05-25T04:28:47.255Z,62.28
2023-05-25T04:31:33.339Z,62.33
2023-05-25T04:34:25.580Z,62.28
2023-05-25T04:37:06.227Z,61.99
2023-05-25T04:39:35.908Z,62.14
2023-05-25T04:42:06.516Z,62.10
2023-05-25T04:44:38.085Z,62.06
2023-05-25T04:47:13.647Z,62.11
2023-05-25T04:49:46.669Z,61.97
2023-05-25T04:52:17.088Z,62.05
2023-05-25T04:54:48.093Z,62.23
2023-05-25T04:57:19.204Z,62.18
2023-05-25T04:59:48.803Z,61.92
2023-05-25T05:02:18.806Z,62.24
2023-05-25T05:04:55.277Z,62.26
2023-05-25T05:07:26.973Z,61.95
2023-05-25T05:09:56.621Z,62.05
2023-05-25T05:12:26.040Z,62.19
2023-05-25T05:14:58.270Z,62.14
2023-05-25T05:17:30.964Z,62.03
2023-05-25T05:20:01.334Z,62.02
2023-05-25T05:22:33.765Z,62.09
2023-05-25T05:25:03.221Z,61.97
2023-05-25T05:27:32.501Z,62.06
2023-05-25T05:30:06.676Z,62.03
2023-05-25T05:32:37.357Z,62.05
2023-05-25T05:35:08.037Z,62.00
2023-05-25T05:37:44.819Z,61.99
2023-05-25T05:40:14.358Z,61.94
2023-05-25T05:42:44.784Z,61.93
2023-05-25T05:45:14.557Z,62.01
2023-05-25T05:47:46.479Z,62.01
2023-05-25T05:50:15.658Z,61.91
2023-05-25T05:52:45.648Z,62.27
2023-05-25T05:55:14.538Z,62.41
2023-05-25T05:57:44.371Z,62.29
2023-05-25T06:00:14.740Z,62.32
2023-05-25T06:02:44.462Z,62.33
2023-05-25T06:05:18.487Z,62.42
2023-05-25T06:07:49.949Z,62.33
2023-05-25T06:10:20.659Z,62.16
2023-05-25T06:12:51.642Z,62.18
2023-05-25T06:15:23.312Z,62.24
2023-05-25T06:17:53.754Z,61.92
2023-05-25T06:20:24.335Z,62.04
2023-05-25T06:22:54.286Z,62.05
2023-05-25T06:25:25.544Z,62.15
2023-05-25T06:27:57.997Z,62.17
2023-05-25T06:30:28.647Z,61.81
2023-05-25T06:33:00.233Z,61.96
2023-05-25T06:35:30.393Z,61.77
2023-05-25T06:38:03.166Z,61.72
2023-05-25T06:40:32.303Z,61.66
2023-05-25T06:43:03.500Z,61.90
2023-05-25T06:45:51.968Z,61.74
2023-05-25T06:48:22.306Z,61.54
2023-05-25T06:50:54.036Z,61.01
2023-05-25T06:53:23.027Z,61.21
2023-05-25T06:55:54.254Z,61.24
2023-05-25T06:58:24.715Z,61.11
2023-05-25T07:00:55.527Z,61.08
2023-05-25T07:03:26.464Z,60.78
2023-05-25T07:05:58.419Z,60.68
2023-05-25T07:08:28.497Z,60.86
2023-05-25T07:10:58.790Z,60.85
2023-05-25T07:13:28.819Z,60.74
2023-05-25T07:15:57.827Z,60.88
2023-05-25T07:18:27.297Z,60.40
2023-05-25T07:20:56.843Z,60.32
2023-05-25T07:23:26.869Z,60.23
2023-05-25T07:25:58.141Z,60.53
2023-05-25T07:28:29.030Z,60.45
2023-05-25T07:30:59.990Z,60.32
2023-05-25T07:33:30.102Z,60.28
2023-05-25T07:36:02.622Z,59.94
2023-05-25T07:38:31.608Z,57.85
2023-05-25T07:41:00.498Z,56.07
2023-05-25T07:43:31.053Z,55.32
2023-05-25T07:46:02.861Z,54.69
2023-05-25T07:48:32.488Z,54.15
2023-05-25T07:51:02.021Z,54.30
2023-05-25T07:53:34.265Z,52.25
2023-05-25T07:56:04.684Z,52.56
2023-05-25T07:58:34.733Z,51.28
2023-05-25T08:01:03.699Z,50.90
2023-05-25T08:03:48.249Z,50.11
2023-05-25T08:06:18.293Z,50.57
2023-05-25T08:08:48.156Z,50.81
2023-05-25T08:11:20.434Z,50.70
2023-05-25T08:13:50.626Z,49.81
2023-05-25T08:16:20.051Z,50.11
2023-05-25T08:18:50.560Z,49.86
2023-05-25T08:21:20.731Z,49.36
2023-05-25T08:23:51.798Z,50.29
2023-05-25T08:28:54.023Z,50.58
2023-05-25T08:31:22.943Z,49.95
2023-05-25T08:33:52.263Z,48.94
2023-05-25T08:36:21.641Z,49.18
2023-05-25T08:38:52.070Z,48.11
2023-05-25T08:41:24.694Z,48.91
2023-05-25T08:43:54.454Z,48.54
2023-05-25T08:46:31.434Z,49.09
2023-05-25T08:49:10.697Z,49.19
2023-05-25T08:51:43.222Z,48.34
2023-05-25T08:54:13.618Z,47.73
2023-05-25T08:56:49.641Z,46.97
2023-05-25T08:59:26.328Z,47.03
2023-05-25T09:02:14.517Z,46.86
2023-05-25T09:04:43.935Z,46.91
2023-05-25T09:07:14.480Z,46.81
2023-05-25T09:09:44.851Z,45.41
2023-05-25T09:12:15.872Z,46.61
2023-05-25T09:14:48.507Z,47.15
2023-05-25T09:17:20.398Z,46.69
2023-05-25T09:19:50.932Z,46.68
2023-05-25T09:22:21.063Z,45.95
2023-05-25T09:24:49.792Z,46.48
2023-05-25T09:27:20.227Z,46.35
2023-05-25T09:29:51.661Z,46.03
2023-05-25T09:32:23.296Z,46.83
2023-05-25T09:34:53.855Z,47.04
2023-05-25T09:37:24.063Z,45.78
2023-05-25T09:39:53.374Z,45.34
2023-05-25T09:42:23.071Z,45.23
2023-05-25T09:44:53.182Z,44.58
2023-05-25T09:47:23.022Z,45.12
2023-05-25T09:49:53.391Z,44.85
2023-05-25T09:52:23.211Z,45.14
2023-05-25T09:54:54.170Z,45.02
2023-05-25T09:57:24.213Z,44.62
2023-05-25T09:59:55.340Z,44.30
2023-05-25T10:02:24.642Z,44.31
2023-05-25T10:04:54.536Z,44.03
2023-05-25T10:07:26.923Z,43.01
2023-05-25T10:09:56.588Z,42.81
2023-05-25T10:12:27.582Z,43.08
2023-05-25T10:14:58.935Z,42.81
2023-05-25T10:17:30.039Z,43.20
2023-05-25T10:20:01.356Z,43.63
2023-05-25T10:22:36.901Z,43.42
2023-05-25T10:25:10.709Z,43.44
2023-05-25T10:27:41.901Z,42.12
2023-05-25T10:30:12.699Z,42.52
2023-05-25T10:32:44.726Z,41.90
2023-05-25T10:35:15.744Z,42.54
2023-05-25T10:37:47.221Z,42.38
2023-05-25T10:40:17.200Z,42.73
2023-05-25T10:42:47.110Z,42.29
2023-05-25T10:45:17.373Z,42.23
2023-05-25T10:47:48.569Z,41.97
2023-05-25T10:50:24.607Z,42.06
2023-05-25T10:53:02.118Z,41.99
2023-05-25T10:55:42.916Z,41.99
2023-05-25T10:58:14.186Z,42.37
2023-05-25T11:00:44.789Z,42.26
2023-05-25T11:03:14.925Z,42.10
2023-05-25T11:05:51.405Z,42.25
2023-05-25T11:08:24.324Z,42.02
2023-05-25T11:10:55.639Z,41.64
2023-05-25T11:13:40.961Z,41.25
2023-05-25T11:16:29.824Z,41.73
2023-05-25T11:19:02.690Z,41.51
2023-05-25T11:21:35.252Z,41.87
2023-05-25T11:24:07.146Z,42.12
2023-05-25T11:26:36.357Z,41.78
2023-05-25T11:29:16.256Z,41.99
2023-05-25T11:31:52.635Z,41.72
2023-05-25T11:34:24.069Z,41.29
2023-05-25T11:36:54.747Z,41.09
2023-05-25T11:39:27.044Z,41.24
2023-05-25T11:41:57.573Z,41.19
2023-05-25T11:44:30.536Z,40.87
2023-05-25T11:47:06.821Z,40.65
2023-05-25T11:49:42.247Z,41.31
2023-05-25T11:52:11.272Z,41.08
2023-05-25T11:54:44.560Z,40.95
2023-05-25T11:57:18.012Z,40.80
2023-05-25T11:59:53.151Z,40.15
2023-05-25T12:02:24.510Z,40.66
2023-05-25T12:04:57.723Z,40.69
2023-05-25T12:07:26.835Z,41.00
2023-05-25T12:10:05.352Z,40.71
2023-05-25T12:12:53.532Z,40.42
2023-05-25T12:15:24.214Z,40.77
2023-05-25T12:17:54.942Z,39.99
2023-05-25T12:20:24.854Z,40.01
2023-05-25T12:22:54.935Z,40.23
2023-05-25T12:25:26.018Z,40.55
2023-05-25T12:28:14.306Z,40.63
2023-05-25T12:30:46.128Z,40.75
2023-05-25T12:33:16.041Z,40.72
2023-05-25T12:35:51.758Z,40.35
2023-05-25T12:38:24.138Z,40.35
2023-05-25T12:41:11.506Z,40.42
2023-05-25T12:43:44.720Z,40.14
2023-05-25T12:46:24.278Z,40.43
2023-05-25T12:48:53.827Z,40.33
2023-05-25T12:51:24.194Z,40.30
2023-05-25T12:53:59.218Z,40.36
2023-05-25T12:56:29.424Z,40.64
2023-05-25T12:59:15.016Z,40.67
2023-05-25T13:01:44.274Z,40.64
2023-05-25T13:04:14.076Z,40.29
2023-05-25T13:06:43.147Z,39.89
2023-05-25T13:09:13.307Z,40.37
2023-05-25T13:11:42.660Z,40.84
2023-05-25T13:14:13.175Z,40.85
2023-05-25T13:16:42.117Z,40.68
2023-05-25T13:19:14.758Z,40.63
2023-05-25T13:21:46.204Z,40.56
2023-05-25T13:24:17.134Z,40.29
2023-05-25T13:26:47.510Z,40.53
2023-05-25T13:29:19.148Z,40.45
2023-05-25T13:31:49.572Z,40.47
2023-05-25T13:34:18.783Z,40.43
2023-05-25T13:36:51.081Z,41.04
2023-05-25T13:39:20.339Z,40.43
2023-05-25T13:41:49.198Z,40.51
2023-05-25T13:44:19.160Z,40.28
2023-05-25T13:46:49.041Z,40.39
2023-05-25T13:49:19.956Z,40.64
2023-05-25T13:51:50.195Z,40.71
2023-05-25T13:54:22.086Z,40.52
2023-05-25T13:57:13.259Z,40.42
2023-05-25T13:59:43.251Z,40.23
2023-05-25T14:02:14.945Z,40.50
2023-05-25T14:04:45.990Z,40.07
2023-05-25T14:07:16.928Z,40.22
2023-05-25T14:09:46.080Z,40.64
2023-05-25T14:12:15.160Z,40.77
2023-05-25T14:14:43.999Z,40.78
2023-05-25T14:17:14.524Z,41.00
2023-05-25T14:19:44.863Z,40.37
2023-05-25T14:22:15.133Z,40.55
2023-05-25T14:24:44.505Z,40.68
2023-05-25T14:27:14.353Z,40.85
2023-05-25T14:29:45.644Z,40.54
2023-05-25T14:32:15.967Z,40.32
2023-05-25T14:34:48.286Z,40.36
2023-05-25T14:37:18.892Z,40.18
2023-05-25T14:39:54.559Z,40.13
2023-05-25T14:42:25.326Z,40.58
2023-05-25T14:44:54.504Z,40.68
2023-05-25T14:47:23.597Z,40.79
2023-05-25T14:49:53.996Z,40.62
2023-05-25T14:52:23.878Z,40.41
2023-05-25T14:54:54.905Z,40.67
2023-05-25T14:57:25.098Z,40.44
2023-05-25T14:59:56.323Z,39.91
2023-05-25T15:02:26.860Z,40.04
2023-05-25T15:04:59.354Z,39.93
2023-05-25T15:07:42.393Z,39.86
2023-05-25T15:10:12.050Z,40.27
2023-05-25T15:12:41.008Z,40.23
2023-05-25T15:15:10.386Z,40.16
2023-05-25T15:17:40.996Z,40.30
2023-05-25T15:20:11.496Z,40.28
2023-05-25T15:22:41.513Z,40.31
2023-05-25T15:25:15.004Z,40.44
2023-05-25T15:27:49.904Z,40.50
2023-05-25T15:30:20.011Z,40.75
2023-05-25T15:32:50.909Z,40.95
2023-05-25T15:35:21.815Z,40.69
2023-05-25T15:37:52.969Z,40.81
2023-05-25T15:40:24.776Z,40.63
2023-05-25T15:42:54.692Z,40.66
2023-05-25T15:45:25.483Z,40.81
2023-05-25T15:47:56.064Z,40.70
2023-05-25T15:50:24.979Z,40.83
2023-05-25T15:52:56.035Z,40.74
2023-05-25T15:55:25.234Z,40.80
2023-05-25T15:57:54.002Z,40.87
2023-05-25T16:00:25.016Z,40.75
2023-05-25T16:02:54.732Z,40.75
2023-05-25T16:05:25.097Z,41.01
2023-05-25T16:07:53.943Z,41.07
2023-05-25T16:10:23.395Z,41.04
2023-05-25T16:12:53.850Z,41.26
2023-05-25T16:15:24.091Z,41.14
2023-05-25T16:17:54.838Z,41.09
2023-05-25T16:20:24.739Z,41.15
2023-05-25T16:22:55.739Z,41.19
2023-05-25T16:25:26.036Z,41.28
2023-05-25T16:27:55.489Z,41.37
2023-05-25T16:30:24.328Z,41.36
2023-05-25T16:32:54.827Z,41.60
2023-05-25T16:35:25.189Z,41.41
2023-05-25T16:37:56.508Z,41.62
2023-05-25T16:40:26.763Z,41.72
2023-05-25T16:42:56.674Z,41.96
2023-05-25T16:45:27.524Z,41.94
2023-05-25T16:47:56.497Z,41.75
2023-05-25T16:50:26.209Z,41.71
2023-05-25T16:52:57.736Z,41.72
2023-05-25T16:55:30.106Z,41.83
2023-05-25T16:57:59.905Z,41.77
2023-05-25T17:00:30.645Z,42.07
2023-05-25T17:03:00.656Z,41.91
2023-05-25T17:05:31.605Z,42.15
2023-05-25T17:08:00.737Z,42.39
2023-05-25T17:10:31.056Z,42.13
2023-05-25T17:13:00.415Z,42.32
2023-05-25T17:15:32.313Z,42.28
2023-05-25T17:18:03.037Z,42.44
2023-05-25T17:20:34.027Z,42.66
2023-05-25T17:23:04.684Z,42.74
2023-05-25T17:25:34.436Z,42.50
2023-05-25T17:28:05.277Z,42.62
2023-05-25T17:30:35.668Z,42.76
2023-05-25T17:33:06.350Z,42.90
2023-05-25T17:35:36.512Z,42.96
2023-05-25T17:38:10.078Z,43.13
2023-05-25T17:40:40.913Z,43.26
2023-05-25T17:43:11.367Z,43.52
2023-05-25T17:45:41.970Z,43.65
2023-05-25T17:48:13.956Z,43.73
2023-05-25T17:50:44.128Z,43.80
2023-05-25T17:53:13.479Z,43.93
2023-05-25T17:55:42.951Z,43.97
2023-05-25T17:58:15.032Z,44.13
2023-05-25T18:00:44.507Z,44.24
2023-05-25T18:03:16.600Z,44.31
2023-05-25T18:05:46.618Z,44.42
2023-05-25T18:08:16.462Z,44.62
2023-05-25T18:10:47.622Z,44.66
2023-05-25T18:13:16.611Z,44.65
2023-05-25T18:15:45.618Z,44.76
2023-05-25T18:18:16.735Z,44.90
2023-05-25T18:20:47.581Z,45.04
2023-05-25T18:23:17.842Z,45.11
2023-05-25T18:25:46.864Z,45.18
2023-05-25T18:28:19.366Z,45.19
2023-05-25T18:30:49.359Z,45.52
2023-05-25T18:33:19.949Z,45.47
2023-05-25T18:35:48.997Z,45.42
2023-05-25T18:38:20.672Z,45.68
2023-05-25T18:40:49.929Z,45.75
2023-05-25T18:43:20.738Z,46.00
2023-05-25T18:45:51.379Z,46.03
2023-05-25T18:48:20.666Z,45.98
2023-05-25T18:50:53.085Z,46.20
2023-05-25T18:53:22.216Z,46.24
2023-05-25T18:55:51.428Z,46.36
2023-05-25T18:58:20.992Z,46.53
2023-05-25T19:00:50.914Z,46.61
2023-05-25T19:03:22.351Z,46.43
2023-05-25T19:05:52.512Z,46.66
2023-05-25T19:08:22.365Z,46.80
2023-05-25T19:10:52.583Z,47.01
2023-05-25T19:13:23.372Z,47.03
2023-05-25T19:15:52.530Z,47.10
2023-05-25T19:18:21.290Z,47.14
2023-05-25T19:20:50.817Z,47.28
2023-05-25T19:23:19.864Z,47.51
2023-05-25T19:25:50.992Z,47.44
2023-05-25T19:28:19.775Z,47.54
2023-05-25T19:30:50.369Z,47.58
2023-05-25T19:33:21.129Z,47.68
2023-05-25T19:35:50.144Z,47.78
2023-05-25T19:38:19.552Z,47.79
2023-05-25T19:40:49.063Z,47.96
2023-05-25T19:43:20.023Z,47.99
2023-05-25T19:45:50.093Z,48.09
2023-05-25T19:48:20.599Z,48.21
2023-05-25T19:50:49.781Z,48.36
2023-05-25T19:53:19.158Z,48.43
2023-05-25T19:55:49.369Z,48.44
2023-05-25T19:58:19.568Z,48.51
2023-05-25T20:00:50.213Z,48.61
2023-05-25T20:03:21.296Z,48.63
2023-05-25T20:05:51.585Z,48.78
2023-05-25T20:08:25.032Z,48.90
2023-05-25T20:10:55.908Z,48.95
2023-05-25T20:13:25.806Z,49.00
2023-05-25T20:15:56.183Z,49.21
2023-05-25T20:18:25.636Z,49.37
2023-05-25T20:20:57.590Z,49.39
2023-05-25T20:23:26.434Z,49.50
2023-05-25T20:25:55.845Z,49.68
2023-05-25T20:28:25.893Z,49.85
2023-05-25T20:30:55.671Z,50.12
2023-05-25T20:33:25.962Z,50.21
2023-05-25T20:35:57.059Z,50.26
2023-05-25T20:38:27.135Z,50.50
2023-05-25T20:40:56.763Z,50.68
2023-05-25T20:43:26.240Z,50.80
2023-05-25T20:45:56.209Z,50.95
2023-05-25T20:48:25.842Z,50.97
2023-05-25T20:50:56.299Z,50.90
2023-05-25T20:53:26.949Z,50.95
2023-05-25T20:55:57.346Z,51.06
2023-05-25T20:58:28.765Z,51.17
2023-05-25T21:00:59.186Z,51.39
2023-05-25T21:03:30.728Z,51.33
2023-05-25T21:06:00.893Z,51.57
2023-05-25T21:08:32.378Z,51.51
2023-05-25T21:11:02.049Z,51.63
2023-05-25T21:13:33.641Z,51.70
2023-05-25T21:16:03.983Z,51.70
2023-05-25T21:18:35.339Z,51.86
2023-05-25T21:21:05.922Z,51.84
2023-05-25T21:23:36.793Z,51.92
2023-05-25T21:26:06.093Z,52.08
2023-05-25T21:28:38.359Z,52.02
2023-05-25T21:31:08.136Z,52.18
2023-05-25T21:33:40.613Z,52.23
2023-05-25T21:36:12.055Z,52.40
2023-05-25T21:38:41.698Z,52.52
2023-05-25T21:41:10.637Z,52.54
2023-05-25T21:43:41.554Z,52.67
2023-05-25T21:46:10.188Z,52.82
2023-05-25T21:48:39.320Z,52.90
2023-05-25T21:51:09.957Z,52.87
2023-05-25T21:53:40.923Z,52.82
2023-05-25T21:56:10.823Z,52.93
2023-05-25T21:58:42.175Z,53.03
2023-05-25T22:01:14.483Z,53.30
2023-05-25T22:03:44.264Z,53.50
2023-05-25T22:06:14.162Z,53.38
2023-05-25T22:08:45.604Z,53.48
2023-05-25T22:11:15.923Z,53.38
2023-05-25T22:13:46.423Z,53.44
2023-05-25T22:16:16.921Z,53.38
2023-05-25T22:18:45.608Z,53.55
2023-05-25T22:21:16.092Z,53.57
2023-05-25T22:23:45.828Z,53.67
2023-05-25T22:26:15.122Z,53.83
2023-05-25T22:28:45.618Z,53.80
2023-05-25T22:31:19.267Z,53.75
2023-05-25T22:33:48.494Z,53.92
2023-05-25T22:36:23.021Z,53.91
2023-05-25T22:38:52.066Z,54.15
2023-05-25T22:41:22.885Z,53.93
2023-05-25T22:43:53.316Z,53.90
2023-05-25T22:46:23.680Z,53.92
2023-05-25T22:48:57.077Z,54.21
2023-05-25T22:51:28.427Z,54.28
2023-05-25T22:53:59.086Z,54.41
2023-05-25T22:56:29.559Z,54.47
2023-05-25T22:59:00.555Z,54.72
2023-05-25T23:01:31.118Z,54.72
2023-05-25T23:04:01.780Z,54.95
2023-05-25T23:06:32.894Z,55.27
2023-05-25T23:09:02.578Z,55.33
2023-05-25T23:11:33.371Z,55.15
2023-05-25T23:14:03.338Z,55.09
2023-05-25T23:16:33.778Z,54.68
2023-05-25T23:19:02.946Z,54.95
2023-05-25T23:21:34.600Z,55.14
2023-05-25T23:24:04.251Z,55.15
2023-05-25T23:26:34.644Z,55.29
2023-05-25T23:29:04.473Z,55.36
2023-05-25T23:31:36.085Z,55.34
2023-05-25T23:34:05.723Z,55.49
2023-05-25T23:36:36.189Z,55.78
2023-05-25T23:39:05.712Z,55.75
2023-05-25T23:41:37.005Z,55.76
2023-05-25T23:44:06.774Z,55.72
2023-05-25T23:46:35.688Z,55.68
2023-05-25T23:49:05.508Z,55.60
2023-05-25T23:51:34.676Z,55.28
2023-05-25T23:54:03.261Z,55.41
2023-05-25T23:56:33.701Z,55.54
2023-05-25T23:59:03.614Z,55.35
